createdAt,value
2019-02-15T00:01:22.937Z,1.00
2019-02-15T00:03:53.924Z,1.00
2019-02-15T00:06:24.924Z,0.90
2019-02-15T00:08:55.806Z,0.90
2019-02-15T00:11:26.723Z,0.90
2019-02-15T00:13:57.756Z,0.80
2019-02-15T00:16:30.076Z,0.80
2019-02-15T00:19:18.702Z,0.80
2019-02-15T00:21:54.204Z,0.80
2019-02-15T00:24:25.110Z,0.70
2019-02-15T00:26:58.614Z,0.70
2019-02-15T00:29:29.631Z,0.70
2019-02-15T00:32:00.652Z,0.70
2019-02-15T00:34:31.566Z,0.70
2019-02-15T00:37:03.563Z,0.70
2019-02-15T00:39:35.601Z,0.60
2019-02-15T00:42:06.517Z,0.60
2019-02-15T00:44:37.443Z,0.60
2019-02-15T00:47:23.265Z,0.60
2019-02-15T00:50:32.901Z,0.60
2019-02-15T00:53:47.161Z,0.60
2019-02-15T00:56:36.031Z,0.60
2019-02-15T00:59:24.656Z,0.60
2019-02-15T01:02:49.170Z,0.50
2019-02-15T01:05:30.269Z,0.50
2019-02-15T01:08:18.788Z,0.50
2019-02-15T01:11:08.633Z,0.40
2019-02-15T01:13:39.580Z,0.40
2019-02-15T01:16:10.429Z,0.30
2019-02-15T01:18:42.485Z,0.30
2019-02-15T01:21:13.379Z,0.20
2019-02-15T01:23:44.282Z,0.20
2019-02-15T01:26:38.022Z,0.20
2019-02-15T01:29:28.528Z,0.20
2019-02-15T01:32:11.010Z,0.20
2019-02-15T01:35:00.810Z,0.20
2019-02-15T01:37:54.065Z,0.10
2019-02-15T01:40:34.643Z,0.10
2019-02-15T01:43:27.214Z,0.10
2019-02-15T01:46:07.049Z,0.10
2019-02-15T01:48:39.101Z,0.10
2019-02-15T01:51:09.957Z,0.10
2019-02-15T01:53:42.036Z,0.00
2019-02-15T01:56:13.160Z,0.00
2019-02-15T01:58:44.126Z,0.00
2019-02-15T02:01:19.989Z,0.00
2019-02-15T02:03:50.864Z,0.00
2019-02-15T02:06:21.668Z,0.00
2019-02-15T02:08:52.552Z,0.00
2019-02-15T02:11:23.550Z,0.00
2019-02-15T02:13:54.444Z,0.00
2019-02-15T02:16:25.315Z,0.00
2019-02-15T02:18:57.406Z,0.00
2019-02-15T02:21:28.302Z,0.00
2019-02-15T02:23:59.132Z,0.00
2019-02-15T02:26:29.926Z,-0.10
2019-02-15T02:29:00.855Z,0.00
2019-02-15T02:31:32.440Z,-0.10
2019-02-15T02:34:03.321Z,-0.10
2019-02-15T02:36:49.017Z,-0.10
2019-02-15T02:39:20.169Z,-0.10
2019-02-15T02:41:51.080Z,-0.10
2019-02-15T02:44:21.970Z,-0.10
2019-02-15T02:46:56.545Z,-0.10
2019-02-15T02:49:30.364Z,-0.10
2019-02-15T02:52:01.293Z,-0.10
2019-02-15T02:54:32.166Z,-0.10
2019-02-15T02:57:03.472Z,-0.20
2019-02-15T02:59:34.596Z,-0.20
2019-02-15T03:02:05.774Z,-0.20
2019-02-15T03:04:36.765Z,-0.20
2019-02-15T03:07:07.640Z,-0.20
2019-02-15T03:09:39.733Z,-0.20
2019-02-15T03:12:10.693Z,-0.20
2019-02-15T03:14:41.584Z,-0.20
2019-02-15T03:17:12.493Z,-0.20
2019-02-15T03:19:44.018Z,-0.20
2019-02-15T03:22:14.941Z,-0.20
2019-02-15T03:24:45.963Z,-0.20
2019-02-15T03:27:16.850Z,-0.30
2019-02-15T03:29:47.799Z,-0.20
2019-02-15T03:32:18.712Z,-0.20
2019-02-15T03:34:49.688Z,-0.20
2019-02-15T03:37:31.978Z,-0.20
2019-02-15T03:40:24.694Z,-0.20
2019-02-15T03:42:57.044Z,-0.20
2019-02-15T03:45:28.034Z,-0.20
2019-02-15T03:47:59.022Z,-0.20
2019-02-15T03:50:29.888Z,-0.20
2019-02-15T03:53:00.787Z,-0.30
2019-02-15T03:55:31.688Z,-0.30
2019-02-15T03:58:02.877Z,-0.30
2019-02-15T04:00:33.721Z,-0.30
2019-02-15T04:03:04.682Z,-0.30
2019-02-15T04:05:35.585Z,-0.30
2019-02-15T04:08:06.472Z,-0.40
2019-02-15T04:10:37.401Z,-0.40
2019-02-15T04:13:08.296Z,-0.40
2019-02-15T04:15:40.270Z,-0.50
2019-02-15T04:18:11.183Z,-0.50
2019-02-15T04:20:43.585Z,-0.50
2019-02-15T04:23:14.471Z,-0.60
2019-02-15T04:25:45.346Z,-0.60
2019-02-15T04:28:16.235Z,-0.60
2019-02-15T04:30:47.350Z,-0.60
2019-02-15T04:33:18.269Z,-0.60
2019-02-15T04:35:49.562Z,-0.60
2019-02-15T04:38:20.530Z,-0.60
2019-02-15T04:40:51.455Z,-0.60
2019-02-15T04:43:23.443Z,-0.60
2019-02-15T04:45:54.329Z,-0.60
2019-02-15T04:48:25.267Z,-0.60
2019-02-15T04:50:56.275Z,-0.60
2019-02-15T04:53:29.661Z,-0.60
2019-02-15T04:56:00.569Z,-0.60
2019-02-15T04:58:32.330Z,-0.70
2019-02-15T05:01:03.342Z,-0.70
2019-02-15T05:03:34.314Z,-0.70
2019-02-15T05:06:05.209Z,-0.70
2019-02-15T05:08:36.606Z,-0.70
2019-02-15T05:11:07.486Z,-0.70
2019-02-15T05:13:38.359Z,-0.70
2019-02-15T05:16:09.248Z,-0.70
2019-02-15T05:18:40.142Z,-0.80
2019-02-15T05:21:12.897Z,-0.80
2019-02-15T05:23:43.847Z,-0.80
2019-02-15T05:26:14.850Z,-0.80
2019-02-15T05:28:45.857Z,-0.80
2019-02-15T05:31:16.792Z,-0.80
2019-02-15T05:33:49.505Z,-0.80
2019-02-15T05:36:20.424Z,-0.80
2019-02-15T05:38:51.362Z,-0.80
2019-02-15T05:41:22.286Z,-0.80
2019-02-15T05:43:53.259Z,-0.90
2019-02-15T05:46:24.163Z,-0.90
2019-02-15T05:48:55.228Z,-0.90
2019-02-15T05:51:26.146Z,-0.90
2019-02-15T05:53:57.004Z,-0.90
2019-02-15T05:56:27.900Z,-1.00
2019-02-15T05:59:00.042Z,-1.00
2019-02-15T06:01:31.040Z,-1.00
2019-02-15T06:04:02.007Z,-1.00
2019-02-15T06:06:32.889Z,-1.00
2019-02-15T06:09:04.874Z,-1.00
2019-02-15T06:11:36.783Z,-1.00
2019-02-15T06:14:07.759Z,-1.00
2019-02-15T06:16:38.564Z,-1.00
2019-02-15T06:19:09.495Z,-1.00
2019-02-15T06:21:41.698Z,-1.00
2019-02-15T06:24:12.579Z,-1.00
2019-02-15T06:26:47.071Z,-1.00
2019-02-15T06:29:18.179Z,-1.00
2019-02-15T06:31:53.833Z,-1.00
2019-02-15T06:34:24.714Z,-0.90
2019-02-15T06:36:55.796Z,-1.00
2019-02-15T06:39:29.011Z,-1.00
2019-02-15T06:42:02.679Z,-0.90
2019-02-15T06:44:36.598Z,-0.90
2019-02-15T06:47:07.637Z,-0.90
2019-02-15T06:49:38.667Z,-0.90
2019-02-15T06:52:09.570Z,-0.90
2019-02-15T06:54:41.001Z,-0.80
2019-02-15T06:57:12.017Z,-0.80
2019-02-15T07:00:01.095Z,-0.80
2019-02-15T07:02:47.103Z,-0.80
2019-02-15T07:05:25.697Z,-0.80
2019-02-15T07:07:57.684Z,-0.70
2019-02-15T07:10:29.618Z,-0.70
2019-02-15T07:13:00.653Z,-0.70
2019-02-15T07:15:33.627Z,-0.70
2019-02-15T07:18:04.167Z,-0.70
2019-02-15T07:20:35.175Z,-0.70
2019-02-15T07:23:06.386Z,-0.70
2019-02-15T07:25:37.315Z,-0.60
2019-02-15T07:28:08.194Z,-0.60
2019-02-15T07:30:39.109Z,-0.60
2019-02-15T07:33:10.037Z,-0.60
2019-02-15T07:35:42.761Z,-0.50
2019-02-15T07:38:13.810Z,-0.50
2019-02-15T07:40:44.827Z,-0.50
2019-02-15T07:43:15.733Z,-0.50
2019-02-15T07:45:46.700Z,-0.50
2019-02-15T07:48:17.655Z,-0.40
2019-02-15T07:50:51.038Z,-0.40
2019-02-15T07:53:22.919Z,-0.30
2019-02-15T07:55:57.006Z,-0.30
2019-02-15T07:58:27.929Z,-0.30
2019-02-15T08:00:59.090Z,-0.20
2019-02-15T08:03:30.221Z,-0.10
2019-02-15T08:06:01.231Z,-0.10
2019-02-15T08:08:32.191Z,0.00
2019-02-15T08:11:02.958Z,0.10
2019-02-15T08:13:33.837Z,0.20
2019-02-15T08:16:04.884Z,0.30
2019-02-15T08:18:35.860Z,0.40
2019-02-15T08:21:06.809Z,0.50
2019-02-15T08:23:37.705Z,0.60
2019-02-15T08:26:08.762Z,0.70
2019-02-15T08:28:39.767Z,0.80
2019-02-15T08:31:10.781Z,0.90
2019-02-15T08:33:41.698Z,1.00
2019-02-15T08:36:23.124Z,1.10
2019-02-15T08:38:54.009Z,1.20
2019-02-15T08:41:25.009Z,1.40
2019-02-15T08:43:55.954Z,1.50
2019-02-15T08:46:26.873Z,1.60
2019-02-15T08:48:57.976Z,1.70
2019-02-15T08:51:28.868Z,1.80
2019-02-15T08:53:59.790Z,1.90
2019-02-15T08:56:30.771Z,2.00
2019-02-15T08:59:02.115Z,2.20
2019-02-15T09:01:34.966Z,2.30
2019-02-15T09:04:05.924Z,2.40
2019-02-15T09:06:36.888Z,2.40
2019-02-15T09:09:07.864Z,2.50
2019-02-15T09:11:38.816Z,2.60
2019-02-15T09:14:09.659Z,2.70
2019-02-15T09:16:40.555Z,2.90
2019-02-15T09:19:11.457Z,3.00
2019-02-15T09:21:42.372Z,3.20
2019-02-15T09:24:13.634Z,3.30
2019-02-15T09:26:44.645Z,3.40
2019-02-15T09:29:15.662Z,3.50
2019-02-15T09:31:46.654Z,3.60
2019-02-15T09:34:17.620Z,3.70
2019-02-15T09:36:48.511Z,3.80
2019-02-15T09:39:19.441Z,4.10
2019-02-15T09:41:50.435Z,4.20
2019-02-15T09:44:22.404Z,4.40
2019-02-15T09:46:53.293Z,4.50
2019-02-15T09:49:24.395Z,4.60
2019-02-15T09:51:55.625Z,4.70
2019-02-15T09:54:26.599Z,4.80
2019-02-15T09:56:58.739Z,5.00
2019-02-15T09:59:29.775Z,5.20
2019-02-15T10:02:01.140Z,5.60
2019-02-15T10:04:32.060Z,5.70
2019-02-15T10:07:04.076Z,5.80
2019-02-15T10:09:34.893Z,5.90
2019-02-15T10:12:06.052Z,6.10
2019-02-15T10:14:36.996Z,6.40
2019-02-15T10:17:07.924Z,6.70
2019-02-15T10:19:39.850Z,6.90
2019-02-15T10:22:11.581Z,7.10
2019-02-15T10:25:02.112Z,7.30
2019-02-15T10:27:34.889Z,7.50
2019-02-15T10:30:08.188Z,7.70
2019-02-15T10:32:39.140Z,7.90
2019-02-15T10:35:10.708Z,8.30
2019-02-15T10:37:41.709Z,8.60
2019-02-15T10:40:12.665Z,8.90
2019-02-15T10:42:43.559Z,9.20
2019-02-15T10:45:16.283Z,9.60
2019-02-15T10:47:47.150Z,9.90
2019-02-15T10:50:18.178Z,10.30
2019-02-15T10:52:49.083Z,10.60
2019-02-15T10:55:20.019Z,11.00
2019-02-15T10:57:51.055Z,11.40
2019-02-15T11:00:21.970Z,11.70
2019-02-15T11:02:53.412Z,12.00
2019-02-15T11:05:24.323Z,12.30
2019-02-15T11:07:55.339Z,12.70
2019-02-15T11:10:26.232Z,13.10
2019-02-15T11:12:57.205Z,13.50
2019-02-15T11:15:28.097Z,13.90
2019-02-15T11:17:58.956Z,14.20
2019-02-15T11:20:30.106Z,14.50
2019-02-15T11:23:01.165Z,14.90
2019-02-15T11:25:32.728Z,15.30
2019-02-15T11:28:03.644Z,15.50
2019-02-15T11:30:34.578Z,15.50
2019-02-15T11:33:05.520Z,15.10
2019-02-15T11:35:36.560Z,15.40
2019-02-15T11:38:07.608Z,15.70
2019-02-15T11:40:38.632Z,16.10
2019-02-15T11:43:10.637Z,16.50
2019-02-15T11:45:41.590Z,17.00
2019-02-15T11:48:12.515Z,17.20
2019-02-15T11:50:43.482Z,17.40
2019-02-15T11:53:14.499Z,17.70
2019-02-15T11:55:45.447Z,18.10
2019-02-15T11:58:16.371Z,18.40
2019-02-15T12:00:47.297Z,18.50
2019-02-15T12:03:18.788Z,18.40
2019-02-15T12:05:49.686Z,18.40
2019-02-15T12:08:20.688Z,18.80
2019-02-15T12:10:53.393Z,19.00
2019-02-15T12:13:24.394Z,19.10
2019-02-15T12:15:55.290Z,19.40
2019-02-15T12:18:27.938Z,19.60
2019-02-15T12:20:58.921Z,19.90
2019-02-15T12:23:30.446Z,20.20
2019-02-15T12:26:04.727Z,20.50
2019-02-15T12:28:35.752Z,20.40
2019-02-15T12:31:06.893Z,20.10
2019-02-15T12:33:37.841Z,20.20
2019-02-15T12:36:07.701Z,20.40
2019-02-15T12:38:38.463Z,20.80
2019-02-15T12:41:09.578Z,21.10
2019-02-15T12:43:40.477Z,21.10
2019-02-15T12:46:11.395Z,21.40
2019-02-15T12:48:42.426Z,21.70
2019-02-15T12:51:13.371Z,22.10
2019-02-15T12:53:44.272Z,22.40
2019-02-15T12:56:16.236Z,22.60
2019-02-15T12:58:47.337Z,22.80
2019-02-15T13:01:18.373Z,22.50
2019-02-15T13:03:49.858Z,21.70
2019-02-15T13:06:28.474Z,21.20
2019-02-15T13:08:53.697Z,21.30
2019-02-15T13:11:27.572Z,21.30
2019-02-15T13:13:58.678Z,21.00
2019-02-15T13:16:31.158Z,21.00
2019-02-15T13:19:02.156Z,20.80
2019-02-15T13:21:33.087Z,20.70
2019-02-15T13:24:05.048Z,20.60
2019-02-15T13:26:36.803Z,20.60
2019-02-15T13:29:07.815Z,20.60
2019-02-15T13:31:39.630Z,20.40
2019-02-15T13:34:10.554Z,20.70
2019-02-15T13:36:41.479Z,20.80
2019-02-15T13:39:12.363Z,21.10
2019-02-15T13:41:43.307Z,21.00
2019-02-15T13:44:15.209Z,20.80
2019-02-15T13:46:46.290Z,20.60
2019-02-15T13:49:17.178Z,20.40
2019-02-15T13:51:48.111Z,20.40
2019-02-15T13:54:19.004Z,20.40
2019-02-15T13:56:50.680Z,20.50
2019-02-15T13:59:21.652Z,20.70
2019-02-15T14:01:52.669Z,20.60
2019-02-15T14:04:23.811Z,20.50
2019-02-15T14:06:55.816Z,20.80
2019-02-15T14:09:26.724Z,20.70
2019-02-15T14:11:57.671Z,20.90
2019-02-15T14:14:29.670Z,21.00
2019-02-15T14:17:00.686Z,21.30
2019-02-15T14:19:31.563Z,21.50
2019-02-15T14:22:02.456Z,21.80
2019-02-15T14:24:33.336Z,22.10
2019-02-15T14:27:04.745Z,22.40
2019-02-15T14:29:35.713Z,22.60
2019-02-15T14:32:07.759Z,22.30
2019-02-15T14:34:39.256Z,22.10
2019-02-15T14:37:12.797Z,22.00
2019-02-15T14:39:43.791Z,21.90
2019-02-15T14:42:14.783Z,21.90
2019-02-15T14:44:45.868Z,22.00
2019-02-15T14:47:16.765Z,22.10
2019-02-15T14:49:48.846Z,21.90
2019-02-15T14:52:19.857Z,21.90
2019-02-15T14:54:52.246Z,21.60
2019-02-15T14:57:23.117Z,21.50
2019-02-15T14:59:54.363Z,21.30
2019-02-15T15:02:25.294Z,21.20
2019-02-15T15:04:56.654Z,21.00
2019-02-15T15:07:27.627Z,20.80
2019-02-15T15:09:58.543Z,20.50
2019-02-15T15:12:31.143Z,20.50
2019-02-15T15:15:02.042Z,20.50
2019-02-15T15:17:34.094Z,20.60
2019-02-15T15:20:06.852Z,20.60
2019-02-15T15:22:37.729Z,20.60
2019-02-15T15:25:09.872Z,20.60
2019-02-15T15:27:41.470Z,20.50
2019-02-15T15:30:12.932Z,20.40
2019-02-15T15:32:45.684Z,20.30
2019-02-15T15:35:16.552Z,20.40
2019-02-15T15:37:49.432Z,20.40
2019-02-15T15:40:20.474Z,20.50
2019-02-15T15:42:52.616Z,20.60
2019-02-15T15:45:23.584Z,20.70
2019-02-15T15:47:54.539Z,20.70
2019-02-15T15:50:25.676Z,20.60
2019-02-15T15:52:56.824Z,20.50
2019-02-15T15:55:29.918Z,20.40
2019-02-15T15:58:02.845Z,20.20
2019-02-15T16:00:38.924Z,19.90
2019-02-15T16:03:06.555Z,19.70
2019-02-15T16:05:37.636Z,19.40
2019-02-15T16:08:08.832Z,19.20
2019-02-15T16:10:39.698Z,18.90
2019-02-15T16:13:10.778Z,18.70
2019-02-15T16:15:41.888Z,18.50
2019-02-15T16:18:34.781Z,18.20
2019-02-15T16:21:16.422Z,17.90
2019-02-15T16:23:47.324Z,17.60
2019-02-15T16:26:18.361Z,17.40
2019-02-15T16:28:49.338Z,17.10
2019-02-15T16:31:20.294Z,16.80
2019-02-15T16:33:51.270Z,16.60
2019-02-15T16:36:24.275Z,16.40
2019-02-15T16:38:57.843Z,16.20
2019-02-15T16:41:28.809Z,16.00
2019-02-15T16:44:16.718Z,15.90
2019-02-15T16:46:47.761Z,15.80
2019-02-15T16:49:18.983Z,15.60
2019-02-15T16:51:54.106Z,15.50
2019-02-15T16:54:25.107Z,15.40
2019-02-15T16:58:51.941Z,15.40
2019-02-15T17:01:24.944Z,15.40
2019-02-15T17:03:55.940Z,15.40
2019-02-15T17:06:27.349Z,15.50
2019-02-15T17:09:16.678Z,15.50
2019-02-15T17:11:48.047Z,15.60
2019-02-15T17:14:19.251Z,15.70
2019-02-15T17:16:50.424Z,15.70
2019-02-15T17:19:21.738Z,15.60
2019-02-15T17:22:02.539Z,15.60
2019-02-15T17:24:33.653Z,15.60
2019-02-15T17:27:04.673Z,15.70
2019-02-15T17:29:35.783Z,15.90
2019-02-15T17:32:07.890Z,16.10
2019-02-15T17:34:39.100Z,16.30
2019-02-15T17:37:10.150Z,16.20
2019-02-15T17:39:41.226Z,16.00
2019-02-15T17:42:13.841Z,15.80
2019-02-15T17:44:44.776Z,15.50
2019-02-15T17:47:15.819Z,15.10
2019-02-15T17:49:46.872Z,14.80
2019-02-15T17:52:17.895Z,14.50
2019-02-15T17:54:48.862Z,14.10
2019-02-15T17:57:19.811Z,13.80
2019-02-15T17:59:50.942Z,13.50
2019-02-15T18:02:22.139Z,13.20
2019-02-15T18:04:53.492Z,12.90
2019-02-15T18:07:25.076Z,12.70
2019-02-15T18:10:15.148Z,12.50
2019-02-15T18:12:46.112Z,12.30
2019-02-15T18:15:17.117Z,12.00
2019-02-15T18:17:48.282Z,11.80
2019-02-15T18:20:19.225Z,11.60
2019-02-15T18:22:50.120Z,11.40
2019-02-15T18:25:21.098Z,11.20
2019-02-15T18:27:52.026Z,11.00
2019-02-15T18:30:23.321Z,10.80
2019-02-15T18:32:54.283Z,10.70
2019-02-15T18:35:25.216Z,10.50
2019-02-15T18:37:56.345Z,10.40
2019-02-15T18:40:27.422Z,10.20
2019-02-15T18:42:58.382Z,10.00
2019-02-15T18:45:31.319Z,9.80
2019-02-15T18:48:03.048Z,9.60
2019-02-15T18:50:34.208Z,9.50
2019-02-15T18:53:05.195Z,9.40
2019-02-15T18:55:36.487Z,9.20
2019-02-15T18:58:08.912Z,9.10
2019-02-15T19:00:40.177Z,9.00
2019-02-15T19:03:11.112Z,8.90
2019-02-15T19:05:42.255Z,8.70
2019-02-15T19:08:14.166Z,8.60
2019-02-15T19:10:45.082Z,8.50
2019-02-15T19:13:16.583Z,8.40
2019-02-15T19:15:48.038Z,8.40
2019-02-15T19:18:19.037Z,8.30
2019-02-15T19:20:50.183Z,8.20
2019-02-15T19:23:21.274Z,8.20
2019-02-15T19:25:52.382Z,8.10
2019-02-15T19:28:24.488Z,8.00
2019-02-15T19:30:55.521Z,8.00
2019-02-15T19:33:26.573Z,7.90
2019-02-15T19:35:57.907Z,7.80
2019-02-15T19:38:29.002Z,7.70
2019-02-15T19:41:00.124Z,7.60
2019-02-15T19:43:31.257Z,7.50
2019-02-15T19:46:03.321Z,7.50
2019-02-15T19:48:34.323Z,7.40
2019-02-15T19:51:05.280Z,7.30
2019-02-15T19:53:36.300Z,7.20
2019-02-15T19:56:07.419Z,7.20
2019-02-15T19:58:43.671Z,7.10
2019-02-15T20:01:12.698Z,7.00
2019-02-15T20:03:43.701Z,6.90
2019-02-15T20:06:15.046Z,6.80
2019-02-15T20:08:47.145Z,6.70
2019-02-15T20:11:19.598Z,6.70
2019-02-15T20:13:51.939Z,6.60
2019-02-15T20:16:23.501Z,6.50
2019-02-15T20:18:54.465Z,6.50
2019-02-15T20:21:25.550Z,6.40
2019-02-15T20:23:56.630Z,6.30
2019-02-15T20:26:27.649Z,6.30
2019-02-15T20:28:58.895Z,6.20
2019-02-15T20:31:29.894Z,6.10
2019-02-15T20:34:00.993Z,6.00
2019-02-15T20:36:33.863Z,5.90
2019-02-15T20:39:05.395Z,5.80
2019-02-15T20:41:36.539Z,5.70
2019-02-15T20:44:07.542Z,5.50
2019-02-15T20:46:45.079Z,5.50
2019-02-15T20:49:16.146Z,5.50
2019-02-15T20:51:47.921Z,5.40
2019-02-15T20:54:19.075Z,5.40
2019-02-15T20:56:50.063Z,5.30
2019-02-15T20:59:21.226Z,5.30
2019-02-15T21:01:52.305Z,5.20
2019-02-15T21:04:23.363Z,5.20
2019-02-15T21:06:56.212Z,5.10
2019-02-15T21:09:27.665Z,5.10
2019-02-15T21:11:58.686Z,5.00
2019-02-15T21:14:29.888Z,4.90
2019-02-15T21:17:01.077Z,5.00
2019-02-15T21:19:32.116Z,4.90
2019-02-15T21:22:03.118Z,4.90
2019-02-15T21:24:34.554Z,4.80
2019-02-15T21:27:08.396Z,4.70
2019-02-15T21:29:39.858Z,4.70
2019-02-15T21:32:10.836Z,4.70
2019-02-15T21:34:41.982Z,4.50
2019-02-15T21:37:13.011Z,4.50
2019-02-15T21:39:44.410Z,4.50
2019-02-15T21:42:15.369Z,4.40
2019-02-15T21:44:46.440Z,4.40
2019-02-15T21:47:19.125Z,4.40
2019-02-15T21:49:50.164Z,4.40
2019-02-15T21:52:22.446Z,4.40
2019-02-15T21:54:53.583Z,4.30
2019-02-15T21:57:24.413Z,4.30
2019-02-15T21:59:55.587Z,4.20
2019-02-15T22:02:26.963Z,4.20
2019-02-15T22:04:59.946Z,4.20
2019-02-15T22:07:30.969Z,4.10
2019-02-15T22:10:10.813Z,4.10
2019-02-15T22:12:42.222Z,4.10
2019-02-15T22:15:13.199Z,4.10
2019-02-15T22:17:44.153Z,4.10
2019-02-15T22:20:15.110Z,4.00
2019-02-15T22:22:47.893Z,4.00
2019-02-15T22:25:18.922Z,3.90
2019-02-15T22:27:51.173Z,3.90
2019-02-15T22:30:22.466Z,3.80
2019-02-15T22:32:55.264Z,3.80
2019-02-15T22:35:26.171Z,3.80
2019-02-15T22:37:57.311Z,3.80
2019-02-15T22:40:29.972Z,3.70
2019-02-15T22:43:03.564Z,3.70
2019-02-15T22:45:35.610Z,3.70
2019-02-15T22:48:06.743Z,3.70
2019-02-15T22:50:37.719Z,3.70
2019-02-15T22:53:08.650Z,3.60
2019-02-15T22:55:39.602Z,3.60
2019-02-15T22:58:10.473Z,3.60
2019-02-15T23:00:52.263Z,3.60
2019-02-15T23:03:25.849Z,3.50
2019-02-15T23:05:56.739Z,3.50
2019-02-15T23:08:27.690Z,3.50
2019-02-15T23:10:59.432Z,3.50
2019-02-15T23:13:32.162Z,3.40
2019-02-15T23:16:03.240Z,3.40
2019-02-15T23:18:34.199Z,3.40
2019-02-15T23:21:05.433Z,3.40
2019-02-15T23:23:37.446Z,3.30
2019-02-15T23:26:08.634Z,3.30
2019-02-15T23:28:39.589Z,3.30
2019-02-15T23:31:10.556Z,3.30
2019-02-15T23:33:42.649Z,3.20
2019-02-15T23:36:13.641Z,3.20
2019-02-15T23:38:44.647Z,3.20
2019-02-15T23:41:15.722Z,3.10
2019-02-15T23:43:48.154Z,3.10
2019-02-15T23:46:19.156Z,3.10
2019-02-15T23:48:50.084Z,3.10
2019-02-15T23:51:21.010Z,3.00
2019-02-15T23:53:51.917Z,3.00
2019-02-15T23:56:22.846Z,3.00
2019-02-15T23:58:54.014Z,3.00
